createdAt,value
2022-11-21T00:02:07.364Z,20.30
2022-11-21T00:04:35.426Z,20.30
2022-11-21T00:07:03.238Z,20.30
2022-11-21T00:09:34.976Z,20.30
2022-11-21T00:12:02.943Z,20.30
2022-11-21T00:14:30.689Z,20.30
2022-11-21T00:16:58.660Z,20.30
2022-11-21T00:19:26.565Z,20.20
2022-11-21T00:21:54.534Z,20.20
2022-11-21T00:24:22.322Z,20.20
2022-11-21T00:26:50.142Z,20.20
2022-11-21T00:29:18.067Z,20.20
2022-11-21T00:31:45.899Z,20.20
2022-11-21T00:34:13.657Z,20.20
2022-11-21T00:36:41.431Z,20.20
2022-11-21T00:39:09.180Z,20.20
2022-11-21T00:41:37.002Z,20.10
2022-11-21T00:44:04.723Z,20.20
2022-11-21T00:46:32.483Z,20.10
2022-11-21T00:49:00.272Z,20.10
2022-11-21T00:51:28.797Z,20.10
2022-11-21T00:53:56.781Z,20.10
2022-11-21T00:56:24.553Z,20.10
2022-11-21T00:58:52.485Z,20.00
2022-11-21T01:01:20.398Z,20.00
2022-11-21T01:03:48.371Z,20.00
2022-11-21T01:06:16.173Z,20.00
2022-11-21T01:08:44.167Z,20.00
2022-11-21T01:11:12.037Z,20.00
2022-11-21T01:13:39.924Z,20.00
2022-11-21T01:16:07.637Z,20.00
2022-11-21T01:18:36.573Z,19.90
2022-11-21T01:21:04.371Z,20.00
2022-11-21T01:23:32.155Z,20.00
2022-11-21T01:25:59.924Z,19.90
2022-11-21T01:28:27.751Z,19.90
2022-11-21T01:30:55.561Z,19.90
2022-11-21T01:33:23.424Z,19.90
2022-11-21T01:35:51.258Z,19.90
2022-11-21T01:38:19.130Z,19.90
2022-11-21T01:40:46.888Z,19.90
2022-11-21T01:43:14.776Z,19.90
2022-11-21T01:45:42.656Z,19.90
2022-11-21T01:48:10.729Z,19.90
2022-11-21T01:50:38.495Z,19.90
2022-11-21T01:53:06.349Z,19.90
2022-11-21T01:55:34.350Z,19.90
2022-11-21T01:58:02.134Z,19.90
2022-11-21T02:00:29.938Z,19.90
2022-11-21T02:02:57.728Z,19.90
2022-11-21T02:05:25.491Z,19.90
2022-11-21T02:07:53.399Z,19.90
2022-11-21T02:10:21.161Z,19.90
2022-11-21T02:12:49.006Z,19.90
2022-11-21T02:15:16.807Z,19.90
2022-11-21T02:17:44.594Z,19.90
2022-11-21T02:20:12.477Z,19.90
2022-11-21T02:22:40.279Z,19.80
2022-11-21T02:25:08.143Z,19.80
2022-11-21T02:27:36.204Z,19.90
2022-11-21T02:30:04.017Z,19.80
2022-11-21T02:32:31.788Z,19.80
2022-11-21T02:34:59.592Z,19.80
2022-11-21T02:37:27.386Z,19.80
2022-11-21T02:39:55.218Z,19.80
2022-11-21T02:42:23.008Z,19.80
2022-11-21T02:44:51.092Z,19.80
2022-11-21T02:47:18.841Z,19.80
2022-11-21T02:49:46.687Z,19.80
2022-11-21T02:52:14.454Z,19.70
2022-11-21T02:54:42.258Z,19.70
2022-11-21T02:57:10.024Z,19.70
2022-11-21T02:59:37.904Z,19.70
2022-11-21T03:02:05.647Z,19.70
2022-11-21T03:04:33.413Z,19.70
2022-11-21T03:07:01.248Z,19.70
2022-11-21T03:09:29.121Z,19.70
2022-11-21T03:11:56.869Z,19.70
2022-11-21T03:14:24.733Z,19.70
2022-11-21T03:16:52.579Z,19.70
2022-11-21T03:19:20.360Z,19.70
2022-11-21T03:21:48.135Z,19.70
2022-11-21T03:24:15.918Z,19.70
2022-11-21T03:26:43.691Z,19.70
2022-11-21T03:29:11.442Z,19.70
2022-11-21T03:31:39.224Z,19.70
2022-11-21T03:34:06.960Z,19.70
2022-11-21T03:36:34.775Z,19.70
2022-11-21T03:39:02.517Z,19.70
2022-11-21T03:41:33.305Z,19.70
2022-11-21T03:44:01.134Z,19.70
2022-11-21T03:46:29.294Z,19.70
2022-11-21T03:48:57.111Z,19.70
2022-11-21T03:51:24.892Z,19.70
2022-11-21T03:53:52.656Z,19.70
2022-11-21T03:56:20.412Z,19.60
2022-11-21T03:58:48.223Z,19.60
2022-11-21T04:01:16.283Z,19.60
2022-11-21T04:03:44.091Z,19.70
2022-11-21T04:06:11.893Z,19.60
2022-11-21T04:08:39.688Z,19.60
2022-11-21T04:11:07.451Z,19.60
2022-11-21T04:13:35.325Z,19.60
2022-11-21T04:16:03.161Z,19.60
2022-11-21T04:18:31.022Z,19.60
2022-11-21T04:20:59.312Z,19.60
2022-11-21T04:23:27.062Z,19.60
2022-11-21T04:25:54.863Z,19.60
2022-11-21T04:28:22.716Z,19.60
2022-11-21T04:30:54.498Z,19.60
2022-11-21T04:33:22.783Z,19.50
2022-11-21T04:35:50.529Z,19.50
2022-11-21T04:38:18.349Z,19.50
2022-11-21T04:40:46.376Z,19.50
2022-11-21T04:43:14.189Z,19.50
2022-11-21T04:45:41.957Z,19.50
2022-11-21T04:48:09.756Z,19.50
2022-11-21T04:50:37.510Z,19.50
2022-11-21T04:53:05.271Z,19.50
2022-11-21T04:55:32.993Z,19.50
2022-11-21T04:58:00.824Z,19.50
2022-11-21T05:00:28.583Z,19.50
2022-11-21T05:02:56.357Z,19.50
2022-11-21T05:05:24.212Z,19.40
2022-11-21T05:07:51.987Z,19.40
2022-11-21T05:10:19.785Z,19.40
2022-11-21T05:13:04.930Z,19.40
2022-11-21T05:15:32.731Z,19.40
2022-11-21T05:18:00.502Z,19.40
2022-11-21T05:20:28.304Z,19.40
2022-11-21T05:22:56.067Z,19.40
2022-11-21T05:25:24.125Z,19.40
2022-11-21T05:27:52.097Z,19.40
2022-11-21T05:30:19.906Z,19.40
2022-11-21T05:32:47.677Z,19.40
2022-11-21T05:35:15.480Z,19.40
2022-11-21T05:37:43.284Z,19.40
2022-11-21T05:40:11.073Z,19.40
2022-11-21T05:42:56.112Z,19.40
2022-11-21T05:45:23.920Z,19.40
2022-11-21T05:47:51.729Z,19.40
2022-11-21T05:50:19.550Z,19.40
2022-11-21T05:52:47.363Z,19.40
2022-11-21T05:55:15.184Z,19.40
2022-11-21T05:57:42.936Z,19.40
2022-11-21T06:00:10.685Z,19.40
2022-11-21T06:02:55.778Z,19.40
2022-11-21T06:05:23.631Z,19.40
2022-11-21T06:07:51.376Z,19.40
2022-11-21T06:10:19.158Z,19.40
2022-11-21T06:12:46.882Z,19.40
2022-11-21T06:15:14.654Z,19.40
2022-11-21T06:17:42.432Z,19.50
2022-11-21T06:20:10.262Z,19.50
2022-11-21T06:22:38.067Z,19.40
2022-11-21T06:25:05.870Z,19.40
2022-11-21T06:27:33.741Z,19.40
2022-11-21T06:30:01.533Z,19.40
2022-11-21T06:32:29.378Z,19.40
2022-11-21T06:34:57.204Z,19.40
2022-11-21T06:37:24.995Z,19.40
2022-11-21T06:39:52.951Z,19.40
2022-11-21T06:42:20.797Z,19.40
2022-11-21T06:44:48.603Z,19.40
2022-11-21T06:47:16.538Z,19.40
2022-11-21T06:49:44.285Z,19.40
2022-11-21T06:52:12.117Z,19.40
2022-11-21T06:54:39.881Z,19.40
2022-11-21T06:57:07.686Z,19.30
2022-11-21T06:59:35.459Z,19.30
2022-11-21T07:02:03.261Z,19.30
2022-11-21T07:04:31.110Z,19.30
2022-11-21T07:06:58.903Z,19.30
2022-11-21T07:09:33.351Z,19.30
2022-11-21T07:12:21.662Z,19.30
2022-11-21T07:14:48.424Z,19.30
2022-11-21T07:17:16.210Z,19.30
2022-11-21T07:19:43.971Z,19.30
2022-11-21T07:22:11.757Z,19.30
2022-11-21T07:24:39.565Z,19.30
2022-11-21T07:27:07.376Z,19.30
2022-11-21T07:29:35.191Z,19.30
2022-11-21T07:32:02.987Z,19.30
2022-11-21T07:34:30.778Z,19.30
2022-11-21T07:36:58.558Z,19.30
2022-11-21T07:39:26.647Z,19.30
2022-11-21T07:41:54.629Z,19.30
2022-11-21T07:44:22.422Z,19.30
2022-11-21T07:46:50.233Z,19.30
2022-11-21T07:49:17.993Z,19.20
2022-11-21T07:51:45.790Z,19.30
2022-11-21T07:54:13.551Z,19.30
2022-11-21T07:56:41.322Z,19.30
2022-11-21T07:59:09.125Z,19.30
2022-11-21T08:01:39.233Z,19.30
2022-11-21T08:04:10.503Z,19.30
2022-11-21T08:06:38.304Z,19.30
2022-11-21T08:09:06.080Z,19.30
2022-11-21T08:11:33.897Z,19.30
2022-11-21T08:14:01.673Z,19.30
2022-11-21T08:16:32.941Z,19.30
2022-11-21T08:19:00.737Z,19.30
2022-11-21T08:21:28.561Z,19.30
2022-11-21T08:23:56.395Z,19.30
2022-11-21T08:26:24.161Z,19.30
2022-11-21T08:28:56.925Z,19.30
2022-11-21T08:31:27.431Z,19.30
2022-11-21T08:33:55.293Z,19.30
2022-11-21T08:36:23.063Z,19.30
2022-11-21T08:38:50.836Z,19.30
2022-11-21T08:41:36.029Z,19.30
2022-11-21T08:44:03.899Z,19.30
2022-11-21T08:46:33.709Z,19.30
2022-11-21T08:49:01.487Z,19.20
2022-11-21T08:51:29.269Z,19.20
2022-11-21T08:53:57.361Z,19.20
2022-11-21T08:56:25.102Z,19.20
2022-11-21T08:58:52.884Z,19.20
2022-11-21T09:01:20.771Z,19.20
2022-11-21T09:03:48.694Z,19.20
2022-11-21T09:06:16.504Z,19.20
2022-11-21T09:08:44.260Z,19.20
2022-11-21T09:11:12.054Z,19.20
2022-11-21T09:13:39.814Z,19.20
2022-11-21T09:16:25.025Z,19.10
2022-11-21T09:18:52.815Z,19.10
2022-11-21T09:21:20.597Z,19.10
2022-11-21T09:23:48.406Z,19.10
2022-11-21T09:26:16.242Z,19.10
2022-11-21T09:28:44.027Z,19.10
2022-11-21T09:31:11.796Z,19.10
2022-11-21T09:33:39.587Z,19.10
2022-11-21T09:36:07.471Z,19.10
2022-11-21T09:38:35.293Z,19.10
2022-11-21T09:41:23.069Z,19.10
2022-11-21T09:43:55.607Z,19.10
2022-11-21T09:46:24.054Z,19.10
2022-11-21T09:48:51.866Z,19.10
2022-11-21T09:51:19.654Z,19.10
2022-11-21T09:53:47.442Z,19.10
2022-11-21T09:56:15.216Z,19.10
2022-11-21T09:58:43.008Z,19.10
2022-11-21T10:01:10.907Z,19.10
2022-11-21T10:03:38.751Z,19.10
2022-11-21T10:06:07.013Z,19.10
2022-11-21T10:08:36.750Z,19.20
2022-11-21T10:11:13.992Z,19.20
2022-11-21T10:13:45.858Z,19.10
2022-11-21T10:16:13.615Z,19.10
2022-11-21T10:18:41.430Z,19.20
2022-11-21T10:21:09.230Z,19.20
2022-11-21T10:23:36.990Z,19.20
2022-11-21T10:26:04.879Z,19.20
2022-11-21T10:28:32.688Z,19.20
2022-11-21T10:31:00.516Z,19.10
2022-11-21T10:33:28.286Z,19.20
2022-11-21T10:35:56.108Z,19.20
2022-11-21T10:38:23.907Z,19.10
2022-11-21T10:40:52.204Z,19.10
2022-11-21T10:43:37.424Z,19.10
2022-11-21T10:46:05.175Z,19.20
2022-11-21T10:48:33.017Z,19.10
2022-11-21T10:51:00.835Z,19.10
2022-11-21T10:53:47.152Z,19.10
2022-11-21T10:56:15.064Z,19.10
2022-11-21T10:58:43.440Z,19.10
2022-11-21T11:01:11.260Z,19.10
2022-11-21T11:03:39.118Z,19.10
2022-11-21T11:06:06.878Z,19.10
2022-11-21T11:08:34.709Z,19.10
2022-11-21T11:11:02.468Z,19.10
2022-11-21T11:13:46.243Z,19.10
2022-11-21T11:16:16.181Z,19.10
2022-11-21T11:18:43.981Z,19.10
2022-11-21T11:21:11.834Z,19.10
2022-11-21T11:23:39.617Z,19.10
2022-11-21T11:26:07.440Z,19.10
2022-11-21T11:28:35.225Z,19.10
2022-11-21T11:31:03.018Z,19.10
2022-11-21T11:33:30.815Z,19.10
2022-11-21T11:35:58.587Z,19.10
2022-11-21T11:38:26.331Z,19.10
2022-11-21T11:40:54.117Z,19.10
2022-11-21T11:43:35.731Z,19.10
2022-11-21T11:46:21.246Z,19.10
2022-11-21T11:49:17.162Z,19.10
2022-11-21T11:51:36.907Z,19.10
2022-11-21T11:54:04.728Z,19.10
2022-11-21T11:56:33.029Z,19.10
2022-11-21T11:59:00.878Z,19.10
2022-11-21T12:01:28.622Z,19.20
2022-11-21T12:03:58.166Z,19.10
2022-11-21T12:06:46.838Z,19.10
2022-11-21T12:09:14.020Z,19.10
2022-11-21T12:11:59.293Z,19.10
2022-11-21T12:14:44.575Z,19.10
2022-11-21T12:17:12.380Z,19.10
2022-11-21T12:19:40.129Z,19.10
2022-11-21T12:22:08.888Z,19.10
2022-11-21T12:24:42.541Z,19.20
2022-11-21T12:27:10.904Z,19.10
2022-11-21T12:29:38.683Z,19.20
2022-11-21T12:32:06.450Z,19.10
2022-11-21T12:34:34.211Z,19.10
2022-11-21T12:37:02.044Z,19.10
2022-11-21T12:39:30.156Z,19.10
2022-11-21T12:42:15.895Z,19.10
2022-11-21T12:44:43.652Z,19.10
2022-11-21T12:47:11.399Z,19.10
2022-11-21T12:49:56.938Z,19.10
2022-11-21T12:52:42.125Z,19.10
2022-11-21T12:55:09.933Z,19.10
2022-11-21T12:57:37.740Z,19.00
2022-11-21T13:00:07.500Z,19.10
2022-11-21T13:02:35.317Z,19.00
2022-11-21T13:05:03.093Z,19.00
2022-11-21T13:07:31.364Z,19.00
2022-11-21T13:09:59.225Z,19.00
2022-11-21T13:12:27.190Z,19.00
2022-11-21T13:14:54.935Z,19.00
2022-11-21T13:17:22.787Z,19.00
2022-11-21T13:19:51.177Z,19.00
2022-11-21T13:22:18.951Z,19.00
2022-11-21T13:24:47.546Z,19.00
2022-11-21T13:27:15.362Z,19.00
2022-11-21T13:29:43.156Z,19.00
2022-11-21T13:32:10.969Z,19.00
2022-11-21T13:34:38.747Z,19.00
2022-11-21T13:37:06.545Z,19.00
2022-11-21T13:39:34.747Z,19.10
2022-11-21T13:42:20.651Z,19.10
2022-11-21T13:44:48.807Z,19.10
2022-11-21T13:47:16.582Z,19.10
2022-11-21T13:49:44.384Z,19.10
2022-11-21T13:52:12.167Z,19.00
2022-11-21T13:54:40.024Z,19.10
2022-11-21T13:57:07.832Z,19.10
2022-11-21T13:59:35.611Z,19.10
2022-11-21T14:02:03.384Z,19.10
2022-11-21T14:04:31.184Z,19.10
2022-11-21T14:06:58.984Z,19.10
2022-11-21T14:09:27.386Z,19.10
2022-11-21T14:11:55.333Z,19.10
2022-11-21T14:14:23.132Z,19.10
2022-11-21T14:16:50.864Z,19.10
2022-11-21T14:19:19.111Z,19.10
2022-11-21T14:21:46.967Z,19.10
2022-11-21T14:24:14.862Z,19.10
2022-11-21T14:26:42.811Z,19.10
2022-11-21T14:29:10.592Z,19.10
2022-11-21T14:31:38.366Z,19.10
2022-11-21T14:34:06.165Z,19.10
2022-11-21T14:36:33.949Z,19.00
2022-11-21T14:39:34.782Z,19.00
2022-11-21T14:41:50.076Z,19.00
2022-11-21T14:44:18.114Z,19.00
2022-11-21T14:46:47.463Z,19.00
2022-11-21T14:49:15.548Z,19.60
2022-11-21T14:51:43.362Z,24.70
2022-11-21T14:54:11.114Z,31.50
2022-11-21T14:56:39.361Z,36.50
2022-11-21T14:59:07.113Z,39.70
2022-11-21T15:01:34.929Z,41.80
2022-11-21T15:04:02.707Z,43.30
2022-11-21T15:06:33.503Z,44.40
2022-11-21T15:11:49.018Z,45.60
2022-11-21T15:14:17.415Z,46.10
2022-11-21T15:16:45.373Z,46.40
2022-11-21T15:19:13.165Z,46.70
2022-11-21T15:21:40.915Z,46.70
2022-11-21T15:24:08.726Z,46.50
2022-11-21T15:26:36.589Z,45.80
2022-11-21T15:29:04.365Z,45.00
2022-11-21T15:31:32.179Z,43.90
2022-11-21T15:36:47.673Z,41.60
2022-11-21T15:39:15.440Z,40.10
2022-11-21T15:41:43.374Z,39.00
2022-11-21T15:44:11.166Z,37.90
2022-11-21T15:46:42.133Z,36.80
2022-11-21T15:49:31.394Z,35.80
2022-11-21T15:52:06.918Z,34.80
2022-11-21T15:54:36.703Z,33.80
2022-11-21T15:57:04.568Z,32.90
2022-11-21T15:59:32.541Z,32.30
2022-11-21T16:02:00.538Z,31.60
2022-11-21T16:04:28.529Z,30.90
2022-11-21T16:06:56.358Z,30.30
2022-11-21T16:09:24.177Z,29.70
2022-11-21T16:11:52.001Z,29.10
2022-11-21T16:14:19.797Z,28.50
2022-11-21T16:16:47.840Z,28.10
2022-11-21T16:19:15.658Z,27.70
2022-11-21T16:21:43.534Z,27.30
2022-11-21T16:24:11.568Z,27.00
2022-11-21T16:26:39.453Z,26.70
2022-11-21T16:29:07.251Z,26.40
2022-11-21T16:31:35.075Z,26.10
2022-11-21T16:34:02.969Z,25.80
2022-11-21T16:36:30.764Z,25.50
2022-11-21T16:39:05.209Z,25.20
2022-11-21T16:41:35.960Z,25.00
2022-11-21T16:44:03.939Z,24.80
2022-11-21T16:46:31.704Z,25.30
2022-11-21T16:48:59.643Z,26.40
2022-11-21T16:51:27.403Z,28.00
2022-11-21T16:53:55.674Z,30.30
2022-11-21T16:56:23.560Z,32.50
2022-11-21T16:58:51.451Z,34.40
2022-11-21T17:01:19.403Z,35.40
2022-11-21T17:03:47.473Z,35.90
2022-11-21T17:06:15.367Z,35.70
2022-11-21T17:11:17.679Z,34.90
2022-11-21T17:13:45.570Z,34.30
2022-11-21T17:16:13.511Z,33.50
2022-11-21T17:18:41.403Z,32.80
2022-11-21T17:21:09.223Z,32.10
2022-11-21T17:23:36.969Z,31.40
2022-11-21T17:26:04.765Z,30.70
2022-11-21T17:28:32.509Z,30.10
2022-11-21T17:31:00.833Z,29.50
2022-11-21T17:33:28.756Z,29.00
2022-11-21T17:35:56.561Z,28.50
2022-11-21T17:38:24.605Z,28.00
2022-11-21T17:40:52.408Z,27.60
2022-11-21T17:43:20.546Z,27.10
2022-11-21T17:45:48.670Z,26.80
2022-11-21T17:48:16.451Z,26.60
2022-11-21T17:50:44.468Z,26.40
2022-11-21T17:53:12.378Z,26.10
2022-11-21T17:55:40.819Z,25.90
2022-11-21T17:58:10.590Z,25.60
2022-11-21T18:00:38.420Z,25.30
2022-11-21T18:03:06.203Z,25.10
2022-11-21T18:05:34.261Z,24.80
2022-11-21T18:08:02.017Z,24.60
2022-11-21T18:10:42.825Z,24.40
2022-11-21T18:13:11.502Z,24.40
2022-11-21T18:15:39.451Z,25.10
2022-11-21T18:18:07.223Z,26.20
2022-11-21T18:20:35.187Z,27.70
2022-11-21T18:23:02.915Z,29.20
2022-11-21T18:25:30.869Z,30.40
2022-11-21T18:27:58.654Z,31.30
2022-11-21T18:30:26.462Z,32.00
2022-11-21T18:32:54.364Z,32.20
2022-11-21T18:35:22.316Z,32.40
2022-11-21T18:37:50.154Z,32.30
2022-11-21T18:40:17.962Z,31.90
2022-11-21T18:42:46.970Z,31.50
2022-11-21T18:45:14.869Z,31.10
2022-11-21T18:47:42.945Z,30.60
2022-11-21T18:50:11.030Z,30.10
2022-11-21T18:52:45.057Z,29.70
2022-11-21T18:55:14.543Z,29.20
2022-11-21T18:57:42.357Z,28.80
2022-11-21T19:00:10.221Z,28.30
2022-11-21T19:02:38.102Z,27.90
2022-11-21T19:05:06.159Z,27.60
2022-11-21T19:07:34.188Z,27.20
2022-11-21T19:10:27.917Z,27.10
2022-11-21T19:12:50.073Z,27.00
2022-11-21T19:15:17.863Z,26.80
2022-11-21T19:17:45.858Z,26.70
2022-11-21T19:20:13.750Z,26.40
2022-11-21T19:22:41.717Z,26.20
2022-11-21T19:25:09.672Z,26.00
2022-11-21T19:27:37.758Z,25.70
2022-11-21T19:30:05.889Z,25.40
2022-11-21T19:32:34.284Z,25.20
2022-11-21T19:35:02.406Z,25.00
2022-11-21T19:37:31.589Z,24.80
2022-11-21T19:39:59.561Z,24.50
2022-11-21T19:42:27.498Z,24.30
2022-11-21T19:44:55.283Z,24.10
2022-11-21T19:47:23.131Z,24.10
2022-11-21T19:49:53.785Z,23.90
2022-11-21T19:52:26.466Z,23.80
2022-11-21T19:54:55.693Z,23.70
2022-11-21T19:57:23.535Z,23.50
2022-11-21T19:59:51.389Z,23.40
2022-11-21T20:02:19.176Z,23.20
2022-11-21T20:04:46.911Z,23.10
2022-11-21T20:07:14.797Z,23.00
2022-11-21T20:09:42.582Z,22.90
2022-11-21T20:12:10.513Z,22.80
2022-11-21T20:14:38.494Z,22.60
2022-11-21T20:17:06.252Z,22.60
2022-11-21T20:19:34.193Z,22.40
2022-11-21T20:22:01.961Z,22.30
2022-11-21T20:24:30.013Z,22.20
2022-11-21T20:26:59.364Z,22.10
2022-11-21T20:29:27.401Z,22.00
2022-11-21T20:31:59.173Z,21.90
2022-11-21T20:34:27.510Z,21.80
2022-11-21T20:36:55.477Z,21.70
2022-11-21T20:39:25.575Z,21.70
2022-11-21T20:41:53.316Z,21.60
2022-11-21T20:47:09.268Z,21.50
2022-11-21T20:49:37.161Z,21.40
2022-11-21T20:54:53.064Z,21.40
2022-11-21T20:57:20.901Z,21.30
2022-11-21T20:59:48.872Z,21.30
2022-11-21T21:02:16.949Z,21.20
2022-11-21T21:04:44.720Z,21.20
2022-11-21T21:07:12.852Z,21.20
2022-11-21T21:09:40.777Z,21.10
2022-11-21T21:12:08.625Z,21.10
2022-11-21T21:14:36.685Z,21.10
2022-11-21T21:17:04.468Z,21.00
2022-11-21T21:19:32.790Z,21.00
2022-11-21T21:22:00.733Z,20.90
2022-11-21T21:24:28.558Z,20.90
2022-11-21T21:26:56.625Z,20.90
2022-11-21T21:29:24.401Z,20.80
2022-11-21T21:31:53.000Z,20.80
2022-11-21T21:34:21.279Z,20.80
2022-11-21T21:36:49.353Z,20.80
2022-11-21T21:39:17.338Z,20.70
2022-11-21T21:41:47.119Z,20.70
2022-11-21T21:44:15.649Z,20.70
2022-11-21T21:46:43.646Z,20.60
2022-11-21T21:49:11.436Z,20.60
2022-11-21T21:51:39.974Z,20.60
2022-11-21T21:54:07.818Z,20.60
2022-11-21T21:56:35.663Z,20.50
2022-11-21T21:59:03.521Z,20.50
2022-11-21T22:01:31.392Z,20.50
2022-11-21T22:03:59.288Z,20.40
2022-11-21T22:06:27.239Z,20.40
2022-11-21T22:08:55.006Z,20.40
2022-11-21T22:11:23.067Z,20.30
2022-11-21T22:13:50.944Z,20.30
2022-11-21T22:16:19.010Z,20.30
2022-11-21T22:18:47.127Z,20.20
2022-11-21T22:21:15.039Z,20.20
2022-11-21T22:23:56.495Z,20.20
2022-11-21T22:26:30.942Z,20.20
2022-11-21T22:28:58.917Z,20.20
2022-11-21T22:31:26.717Z,20.20
2022-11-21T22:33:54.684Z,20.20
2022-11-21T22:36:22.735Z,20.10
2022-11-21T22:38:50.555Z,20.10
2022-11-21T22:41:18.448Z,20.10
2022-11-21T22:43:46.233Z,20.10
2022-11-21T22:46:14.144Z,20.10
2022-11-21T22:48:41.926Z,20.00
2022-11-21T22:51:09.855Z,20.00
2022-11-21T22:53:40.270Z,20.00
2022-11-21T22:56:08.339Z,20.00
2022-11-21T22:58:36.256Z,20.00
2022-11-21T23:01:04.127Z,20.00
2022-11-21T23:03:32.329Z,20.00
2022-11-21T23:06:00.756Z,20.00
2022-11-21T23:08:28.664Z,20.00
2022-11-21T23:10:56.443Z,20.00
2022-11-21T23:13:24.257Z,20.00
2022-11-21T23:15:52.014Z,20.00
2022-11-21T23:18:19.979Z,20.00
2022-11-21T23:20:48.287Z,19.90
2022-11-21T23:23:16.079Z,20.00
2022-11-21T23:25:44.063Z,19.90
2022-11-21T23:28:11.802Z,19.90
2022-11-21T23:30:39.628Z,19.90
2022-11-21T23:33:07.631Z,19.90
2022-11-21T23:35:35.402Z,19.90
2022-11-21T23:38:03.317Z,19.90
2022-11-21T23:40:31.157Z,19.90
2022-11-21T23:42:59.109Z,19.90
2022-11-21T23:45:26.885Z,19.90
2022-11-21T23:47:54.687Z,19.90
2022-11-21T23:50:22.595Z,19.90
2022-11-21T23:52:50.330Z,19.90
2022-11-21T23:55:18.087Z,19.80
2022-11-21T23:57:46.050Z,19.80
